createdAt,value
2018-02-11T00:01:40.880Z,99.20
2018-02-11T00:04:09.535Z,98.80
2018-02-11T00:06:38.979Z,99.60
2018-02-11T00:09:07.663Z,99.60
2018-02-11T00:11:36.327Z,99.40
2018-02-11T00:14:04.987Z,99.40
2018-02-11T00:16:34.417Z,99.20
2018-02-11T00:19:03.183Z,99.20
2018-02-11T00:21:32.619Z,99.10
2018-02-11T00:24:01.279Z,99.10
2018-02-11T00:26:30.510Z,99.60
2018-02-11T00:28:59.195Z,99.60
2018-02-11T00:31:27.519Z,99.50
2018-02-11T00:33:56.179Z,99.30
2018-02-11T00:36:24.855Z,99.30
2018-02-11T00:38:53.515Z,99.80
2018-02-11T00:41:22.181Z,99.90
2018-02-11T00:43:51.616Z,99.90
2018-02-11T00:46:20.310Z,99.80
2018-02-11T00:48:48.971Z,99.80
2018-02-11T00:51:18.411Z,99.70
2018-02-11T00:53:47.062Z,99.70
2018-02-11T00:56:16.510Z,99.90
2018-02-11T00:58:45.173Z,99.90
2018-02-11T01:01:13.830Z,99.90
2018-02-11T01:03:43.278Z,99.90
2018-02-11T01:06:11.927Z,99.90
2018-02-11T01:08:41.368Z,99.90
2018-02-11T01:11:10.028Z,99.90
2018-02-11T01:13:38.390Z,99.90
2018-02-11T01:16:07.818Z,99.70
2018-02-11T01:18:36.485Z,99.70
2018-02-11T01:21:05.907Z,99.60
2018-02-11T01:23:34.583Z,99.60
2018-02-11T01:26:04.005Z,99.80
2018-02-11T01:28:32.660Z,99.80
2018-02-11T01:31:02.101Z,99.90
2018-02-11T01:33:30.989Z,99.90
2018-02-11T01:35:59.674Z,99.60
2018-02-11T01:38:28.360Z,99.60
2018-02-11T01:40:57.028Z,99.80
2018-02-11T01:43:25.887Z,99.80
2018-02-11T01:45:54.577Z,99.90
2018-02-11T01:48:23.228Z,99.60
2018-02-11T01:50:51.895Z,99.70
2018-02-11T01:53:20.647Z,99.70
2018-02-11T01:55:50.855Z,99.70
2018-02-11T01:58:19.625Z,99.70
2018-02-11T02:00:48.374Z,99.40
2018-02-11T02:03:17.146Z,99.20
2018-02-11T02:05:46.120Z,99.10
2018-02-11T02:08:14.861Z,99.10
2018-02-11T02:10:43.623Z,99.00
2018-02-11T02:13:12.378Z,99.70
2018-02-11T02:15:41.145Z,99.40
2018-02-11T02:18:09.896Z,99.50
2018-02-11T02:20:38.665Z,99.90
2018-02-11T02:23:07.403Z,99.80
2018-02-11T02:25:36.156Z,99.60
2018-02-11T02:28:04.908Z,99.60
2018-02-11T02:30:33.659Z,99.50
2018-02-11T02:33:03.201Z,99.80
2018-02-11T02:35:31.972Z,99.80
2018-02-11T02:38:00.416Z,99.70
2018-02-11T02:40:29.194Z,99.70
2018-02-11T02:42:57.951Z,99.80
2018-02-11T02:45:26.718Z,99.70
2018-02-11T02:47:55.465Z,99.90
2018-02-11T02:50:24.257Z,99.90
2018-02-11T02:52:53.028Z,99.80
2018-02-11T02:55:22.795Z,99.60
2018-02-11T02:57:51.543Z,99.60
2018-02-11T03:00:19.981Z,99.40
2018-02-11T03:02:48.719Z,99.10
2018-02-11T03:05:17.479Z,98.70
2018-02-11T03:07:46.993Z,99.00
2018-02-11T03:10:16.519Z,99.20
2018-02-11T03:12:45.267Z,99.20
2018-02-11T03:15:14.019Z,99.20
2018-02-11T03:17:42.435Z,99.00
2018-02-11T03:20:11.216Z,99.10
2018-02-11T03:22:39.965Z,99.20
2018-02-11T03:25:08.727Z,99.40
2018-02-11T03:27:37.505Z,99.60
2018-02-11T03:30:07.029Z,99.60
2018-02-11T03:32:35.790Z,99.60
2018-02-11T03:35:04.574Z,99.50
2018-02-11T03:37:33.339Z,99.40
2018-02-11T03:40:02.095Z,99.30
2018-02-11T03:42:30.867Z,99.10
2018-02-11T03:44:59.620Z,99.00
2018-02-11T03:47:28.392Z,99.10
2018-02-11T03:49:57.148Z,99.40
2018-02-11T03:52:25.931Z,99.60
2018-02-11T03:54:54.683Z,99.60
2018-02-11T03:57:23.447Z,99.60
2018-02-11T03:59:52.199Z,99.70
2018-02-11T04:02:20.977Z,99.30
2018-02-11T04:04:50.494Z,99.70
2018-02-11T04:07:19.291Z,99.70
2018-02-11T04:09:48.031Z,99.90
2018-02-11T04:12:16.811Z,99.90
2018-02-11T04:14:45.475Z,99.90
2018-02-11T04:17:13.912Z,99.70
2018-02-11T04:19:43.415Z,99.90
2018-02-11T04:22:12.928Z,99.90
2018-02-11T04:24:42.472Z,99.90
2018-02-11T04:27:11.216Z,99.90
2018-02-11T04:29:40.743Z,99.90
2018-02-11T04:32:09.512Z,99.90
2018-02-11T04:34:39.016Z,99.90
2018-02-11T04:37:08.532Z,99.80
2018-02-11T04:39:38.077Z,99.50
2018-02-11T04:42:06.824Z,99.50
2018-02-11T04:44:36.324Z,99.30
2018-02-11T04:47:05.855Z,99.70
2018-02-11T04:49:34.597Z,99.70
2018-02-11T04:52:03.347Z,99.60
2018-02-11T04:54:32.132Z,99.60
2018-02-11T04:57:00.875Z,99.90
2018-02-11T04:59:29.624Z,99.90
2018-02-11T05:01:58.395Z,99.90
2018-02-11T05:04:27.162Z,99.90
2018-02-11T05:06:56.679Z,99.90
2018-02-11T05:09:25.456Z,99.90
2018-02-11T05:11:54.978Z,99.90
2018-02-11T05:14:23.738Z,99.90
2018-02-11T05:16:53.286Z,99.90
2018-02-11T05:19:21.703Z,99.90
2018-02-11T05:21:50.120Z,99.90
2018-02-11T05:24:19.872Z,99.90
2018-02-11T05:26:48.616Z,99.90
2018-02-11T05:29:17.403Z,99.90
2018-02-11T05:31:46.148Z,99.90
2018-02-11T05:34:14.927Z,99.90
2018-02-11T05:36:43.685Z,99.90
2018-02-11T05:39:12.434Z,99.90
2018-02-11T05:41:41.207Z,99.90
2018-02-11T05:44:09.953Z,99.90
2018-02-11T05:46:38.699Z,99.90
2018-02-11T05:49:07.451Z,99.90
2018-02-11T05:51:36.212Z,99.90
2018-02-11T05:54:04.961Z,99.90
2018-02-11T05:56:33.736Z,99.90
2018-02-11T05:59:02.480Z,99.90
2018-02-11T06:01:31.710Z,99.90
2018-02-11T06:04:00.475Z,99.90
2018-02-11T06:06:30.139Z,99.90
2018-02-11T06:08:58.894Z,99.90
2018-02-11T06:11:27.648Z,99.90
2018-02-11T06:13:56.424Z,99.90
2018-02-11T06:16:25.930Z,99.90
2018-02-11T06:18:55.449Z,99.90
2018-02-11T06:21:24.204Z,99.90
2018-02-11T06:23:52.952Z,99.90
2018-02-11T06:26:21.708Z,99.90
2018-02-11T06:28:51.219Z,99.90
2018-02-11T06:31:19.985Z,99.90
2018-02-11T06:33:48.736Z,99.90
2018-02-11T06:36:17.485Z,99.90
2018-02-11T06:38:47.047Z,99.90
2018-02-11T06:41:15.804Z,99.90
2018-02-11T06:43:44.582Z,99.90
2018-02-11T06:46:13.332Z,99.90
2018-02-11T06:48:42.094Z,99.90
2018-02-11T06:51:10.840Z,99.90
2018-02-11T06:53:40.424Z,99.90
2018-02-11T06:56:09.313Z,99.90
2018-02-11T06:58:38.062Z,99.90
2018-02-11T07:01:07.592Z,99.90
2018-02-11T07:03:37.115Z,99.90
2018-02-11T07:06:07.448Z,99.90
2018-02-11T07:08:36.975Z,99.90
2018-02-11T07:11:05.747Z,99.90
2018-02-11T07:13:35.464Z,99.90
2018-02-11T07:16:04.647Z,99.90
2018-02-11T07:18:33.403Z,99.90
2018-02-11T07:21:02.156Z,99.90
2018-02-11T07:23:30.923Z,99.90
2018-02-11T07:26:00.427Z,99.90
2018-02-11T07:28:29.949Z,99.60
2018-02-11T07:30:58.724Z,99.60
2018-02-11T07:33:30.007Z,98.70
2018-02-11T08:19:40.809Z,97.70
2018-02-11T08:22:09.561Z,81.10
2018-02-11T08:24:38.327Z,81.80
2018-02-11T08:27:07.663Z,79.30
2018-02-11T08:29:36.432Z,79.30
2018-02-11T08:32:05.215Z,76.90
2018-02-11T08:34:34.732Z,72.40
2018-02-11T08:37:03.515Z,72.40
2018-02-11T08:39:32.254Z,70.50
2018-02-11T08:42:00.992Z,68.50
2018-02-11T08:44:29.824Z,67.40
2018-02-11T08:46:58.586Z,67.30
2018-02-11T08:49:27.331Z,66.00
2018-02-11T08:51:56.886Z,65.90
2018-02-11T08:54:25.939Z,65.80
2018-02-11T08:56:54.699Z,66.90
2018-02-11T08:59:24.128Z,66.20
2018-02-11T09:01:53.734Z,66.50
2018-02-11T09:04:22.496Z,65.70
2018-02-11T09:06:51.253Z,66.50
2018-02-11T10:37:18.316Z,65.90
2018-02-11T10:39:48.017Z,62.50
2018-02-11T10:42:17.557Z,59.10
2018-02-11T10:44:46.149Z,59.00
2018-02-11T10:47:14.911Z,58.10
2018-02-11T10:49:43.673Z,58.00
2018-02-11T10:52:13.202Z,56.80
2018-02-11T10:54:41.984Z,56.80
2018-02-11T10:57:11.503Z,55.80
2018-02-11T10:59:40.264Z,55.70
2018-02-11T11:02:09.807Z,55.40
2018-02-11T11:04:38.577Z,55.40
2018-02-11T11:07:08.111Z,55.10
2018-02-11T11:09:36.928Z,55.10
2018-02-11T11:12:05.692Z,55.40
2018-02-11T11:14:34.452Z,55.60
2018-02-11T11:17:03.988Z,55.40
2018-02-11T11:19:32.751Z,55.90
2018-02-11T11:22:01.511Z,54.90
2018-02-11T11:24:30.272Z,54.70
2018-02-11T11:26:59.055Z,54.60
2018-02-11T11:29:27.504Z,54.80
2018-02-11T11:31:56.285Z,55.20
2018-02-11T11:34:25.039Z,54.80
2018-02-11T11:36:53.795Z,55.10
2018-02-11T11:39:22.552Z,55.00
2018-02-11T11:41:52.077Z,55.90
2018-02-11T11:44:20.842Z,55.80
2018-02-11T11:46:49.642Z,55.50
2018-02-11T11:49:18.406Z,55.70
2018-02-11T11:51:47.936Z,56.40
2018-02-11T11:54:16.714Z,56.30
2018-02-11T11:56:46.219Z,56.80
2018-02-11T11:59:15.748Z,57.20
2018-02-11T12:01:44.511Z,57.10
2018-02-11T12:04:14.055Z,57.80
2018-02-11T12:06:42.795Z,57.80
2018-02-11T12:09:11.539Z,58.30
2018-02-11T12:11:40.294Z,58.90
2018-02-11T12:14:09.044Z,59.30
2018-02-11T12:16:37.803Z,59.50
2018-02-11T12:19:06.558Z,59.30
2018-02-11T12:21:35.347Z,59.30
2018-02-11T12:24:04.123Z,58.70
2018-02-11T12:26:33.660Z,58.50
2018-02-11T12:29:02.449Z,58.50
2018-02-11T12:31:31.207Z,58.80
2018-02-11T12:34:00.727Z,59.10
2018-02-11T12:36:30.260Z,59.10
2018-02-11T12:38:59.009Z,59.00
2018-02-11T12:41:28.532Z,59.30
2018-02-11T12:43:57.279Z,59.10
2018-02-11T12:46:26.043Z,59.50
2018-02-11T12:48:54.790Z,59.80
2018-02-11T12:51:24.321Z,60.40
2018-02-11T12:53:53.062Z,60.30
2018-02-11T12:56:21.825Z,60.70
2018-02-11T12:58:50.616Z,60.70
2018-02-11T13:01:19.190Z,60.90
2018-02-11T13:03:47.931Z,61.10
2018-02-11T13:06:17.463Z,59.40
2018-02-11T13:08:46.208Z,59.40
2018-02-11T13:11:14.944Z,58.80
2018-02-11T13:13:43.708Z,58.40
2018-02-11T13:16:13.212Z,57.30
2018-02-11T13:18:42.711Z,57.80
2018-02-11T13:21:12.245Z,57.80
2018-02-11T13:23:40.994Z,57.80
2018-02-11T13:26:09.750Z,58.00
2018-02-11T13:28:38.492Z,58.00
2018-02-11T13:31:07.996Z,58.50
2018-02-11T13:33:37.655Z,57.70
2018-02-11T13:36:06.394Z,57.60
2018-02-11T13:38:35.914Z,57.00
2018-02-11T13:41:05.412Z,57.00
2018-02-11T13:43:34.937Z,57.00
2018-02-11T13:46:03.679Z,56.90
2018-02-11T13:48:33.167Z,57.40
2018-02-11T13:51:01.911Z,57.60
2018-02-11T13:53:31.419Z,58.60
2018-02-11T13:56:00.172Z,58.50
2018-02-11T13:58:28.908Z,59.50
2018-02-11T14:00:57.651Z,60.00
2018-02-11T14:03:26.418Z,60.40
2018-02-11T14:05:55.164Z,61.00
2018-02-11T14:08:23.932Z,62.80
2018-02-11T14:10:53.461Z,64.40
2018-02-11T14:13:22.219Z,64.40
2018-02-11T14:15:50.948Z,65.00
2018-02-11T14:18:19.735Z,65.10
2018-02-11T14:20:48.474Z,64.90
2018-02-11T14:23:17.242Z,65.40
2018-02-11T14:25:45.979Z,66.20
2018-02-11T14:28:15.493Z,68.30
2018-02-11T14:30:44.269Z,68.30
2018-02-11T14:33:13.813Z,72.50
2018-02-11T14:35:42.565Z,72.50
2018-02-11T14:38:12.089Z,79.10
2018-02-11T14:40:40.829Z,79.20
2018-02-11T14:43:10.470Z,82.30
2018-02-11T14:45:39.992Z,87.40
2018-02-11T14:48:09.649Z,87.30
2018-02-11T14:50:38.866Z,90.70
2018-02-11T14:53:07.644Z,93.20
2018-02-11T14:55:37.119Z,96.00
2018-02-11T14:58:05.879Z,97.30
2018-02-11T15:00:35.048Z,99.90
2018-02-11T15:03:03.826Z,99.90
2018-02-11T15:05:32.563Z,99.90
2018-02-11T15:08:01.305Z,99.90
2018-02-11T15:10:30.276Z,99.90
2018-02-11T15:12:59.026Z,99.90
2018-02-11T15:15:27.804Z,99.90
2018-02-11T15:17:56.592Z,99.90
2018-02-11T15:20:25.424Z,99.90
2018-02-11T15:22:54.172Z,99.90
2018-02-11T15:25:23.873Z,99.90
2018-02-11T15:27:54.153Z,99.90
2018-02-11T15:30:22.960Z,99.90
2018-02-11T15:32:51.707Z,99.90
2018-02-11T15:35:20.566Z,99.90
2018-02-11T15:37:50.104Z,99.90
2018-02-11T15:40:19.660Z,99.90
2018-02-11T15:42:48.449Z,99.90
2018-02-11T15:45:17.204Z,99.90
2018-02-11T15:47:45.969Z,99.90
2018-02-11T15:50:14.716Z,99.90
2018-02-11T15:52:43.495Z,99.90
2018-02-11T15:55:12.246Z,99.90
2018-02-11T15:57:41.014Z,99.90
2018-02-11T16:00:09.788Z,99.90
2018-02-11T16:02:39.121Z,99.90
2018-02-11T16:05:07.867Z,99.90
2018-02-11T16:07:37.307Z,99.90
2018-02-11T16:10:06.056Z,99.90
2018-02-11T16:12:34.838Z,99.90
2018-02-11T16:15:03.650Z,99.90
2018-02-11T16:17:33.167Z,99.90
2018-02-11T16:20:01.942Z,99.90
2018-02-11T16:22:31.462Z,99.90
2018-02-11T16:25:00.077Z,99.90
2018-02-11T16:27:29.471Z,99.90
2018-02-11T16:29:59.162Z,99.90
2018-02-11T16:32:28.039Z,99.90
2018-02-11T16:34:57.560Z,99.90
2018-02-11T16:37:26.320Z,99.90
2018-02-11T16:39:55.103Z,99.90
2018-02-11T16:42:23.864Z,99.90
2018-02-11T16:44:52.624Z,99.90
2018-02-11T16:47:21.419Z,99.90
2018-02-11T16:49:50.203Z,99.90
2018-02-11T16:52:18.959Z,99.90
2018-02-11T16:54:47.728Z,99.90
2018-02-11T16:57:16.510Z,99.90
2018-02-11T16:59:45.276Z,99.90
2018-02-11T17:02:14.050Z,99.90
2018-02-11T17:04:42.826Z,99.90
2018-02-11T17:07:11.572Z,99.90
2018-02-11T17:09:40.352Z,99.90
2018-02-11T17:12:09.141Z,99.90
2018-02-11T17:14:37.899Z,99.90
2018-02-11T17:17:06.680Z,99.90
2018-02-11T17:19:36.563Z,99.90
2018-02-11T17:22:05.332Z,99.90
2018-02-11T17:24:34.113Z,99.90
2018-02-11T17:27:03.000Z,99.90
2018-02-11T17:29:31.752Z,99.90
2018-02-11T17:32:00.528Z,99.90
2018-02-11T17:34:29.340Z,99.90
2018-02-11T17:36:58.154Z,99.90
2018-02-11T17:39:26.924Z,99.90
2018-02-11T17:41:55.672Z,99.90
2018-02-11T17:44:24.908Z,99.90
2018-02-11T17:46:53.681Z,99.90
2018-02-11T17:49:23.357Z,99.90
2018-02-11T17:51:52.183Z,99.90
2018-02-11T17:54:20.929Z,99.90
2018-02-11T17:56:49.759Z,99.90
2018-02-11T17:59:18.234Z,99.90
2018-02-11T18:01:47.054Z,99.90
2018-02-11T18:04:16.730Z,99.90
2018-02-11T18:06:46.290Z,99.90
2018-02-11T18:09:15.138Z,99.90
2018-02-11T18:11:43.923Z,99.90
2018-02-11T18:14:13.454Z,99.90
2018-02-11T18:16:42.203Z,99.90
2018-02-11T18:19:12.991Z,99.90
2018-02-11T18:21:42.628Z,99.90
2018-02-11T18:24:11.969Z,99.90
2018-02-11T18:26:41.483Z,99.90
2018-02-11T18:29:10.988Z,99.90
2018-02-11T18:31:40.532Z,99.90
2018-02-11T18:34:09.266Z,99.90
2018-02-11T18:36:37.995Z,99.90
2018-02-11T18:39:06.756Z,99.90
2018-02-11T18:41:36.261Z,99.90
2018-02-11T18:44:05.774Z,99.40
2018-02-11T18:46:34.522Z,99.40
2018-02-11T18:49:03.273Z,99.40
2018-02-11T18:51:32.033Z,98.50
2018-02-11T18:54:01.540Z,98.10
2018-02-11T18:56:31.354Z,98.30
2018-02-11T18:59:00.893Z,97.20
2018-02-11T19:01:29.660Z,97.20
2018-02-11T19:03:58.995Z,98.20
2018-02-11T19:06:27.751Z,96.70
2018-02-11T19:08:56.487Z,97.60
2018-02-11T19:11:25.996Z,96.00
2018-02-11T19:13:54.755Z,97.10
2018-02-11T19:16:23.517Z,97.50
2018-02-11T19:18:53.046Z,98.20
2018-02-11T19:21:21.820Z,98.20
2018-02-11T19:23:50.588Z,97.90
2018-02-11T19:26:21.649Z,98.10
2018-02-11T19:28:50.391Z,98.50
2018-02-11T19:31:19.144Z,98.80
2018-02-11T19:33:47.921Z,98.80
2018-02-11T19:36:16.698Z,98.20
2018-02-11T19:38:46.505Z,97.80
2018-02-11T19:41:15.753Z,96.80
2018-02-11T19:43:44.496Z,96.70
2018-02-11T19:46:14.006Z,97.20
2018-02-11T19:48:43.525Z,97.50
2018-02-11T19:51:12.407Z,97.50
2018-02-11T19:53:41.375Z,97.50
2018-02-11T19:56:11.591Z,97.80
2018-02-11T19:58:40.353Z,97.70
2018-02-11T20:01:09.097Z,97.50
2018-02-11T20:03:38.700Z,97.30
2018-02-11T20:06:07.445Z,97.20
2018-02-11T20:08:36.197Z,97.20
2018-02-11T20:11:05.549Z,97.60
2018-02-11T20:13:34.288Z,97.70
2018-02-11T20:16:02.707Z,97.10
2018-02-11T20:18:31.452Z,97.00
2018-02-11T20:21:00.184Z,97.00
2018-02-11T20:23:28.949Z,97.30
2018-02-11T20:25:57.700Z,97.20
2018-02-11T20:28:27.309Z,97.40
2018-02-11T20:30:56.825Z,97.50
2018-02-11T20:33:25.564Z,97.50
2018-02-11T20:35:54.322Z,97.00
2018-02-11T20:38:23.063Z,96.80
2018-02-11T20:40:51.817Z,96.60
2018-02-11T20:43:21.386Z,95.80
2018-02-11T20:45:50.136Z,95.80
2018-02-11T20:48:18.887Z,96.50
2018-02-11T20:50:48.016Z,97.90
2018-02-11T20:53:16.780Z,97.30
2018-02-11T20:55:46.289Z,96.80
2018-02-11T20:58:15.070Z,96.80
2018-02-11T21:00:43.875Z,96.70
2018-02-11T21:03:12.640Z,97.00
2018-02-11T21:05:41.672Z,96.80
2018-02-11T21:08:10.413Z,96.40
2018-02-11T21:10:39.169Z,95.80
2018-02-11T21:13:07.928Z,94.70
2018-02-11T21:15:36.716Z,95.40
2018-02-11T21:18:05.485Z,94.90
2018-02-11T21:20:33.897Z,95.80
2018-02-11T21:23:02.661Z,95.30
2018-02-11T21:25:31.409Z,95.50
2018-02-11T21:28:00.153Z,95.60
2018-02-11T21:30:29.702Z,95.90
2018-02-11T21:32:59.732Z,95.20
2018-02-11T21:35:28.485Z,95.20
2018-02-11T21:37:57.229Z,95.10
2018-02-11T21:40:25.993Z,95.90
2018-02-11T21:42:56.203Z,95.50
2018-02-11T21:45:25.743Z,95.10
2018-02-11T21:47:54.547Z,95.00
2018-02-11T21:50:23.323Z,95.10
2018-02-11T21:52:51.787Z,95.70
2018-02-11T21:55:20.540Z,95.10
2018-02-11T21:57:49.304Z,95.40
2018-02-11T22:00:18.071Z,95.60
2018-02-11T22:02:46.844Z,95.20
2018-02-11T22:05:16.674Z,95.80
2018-02-11T22:07:45.696Z,96.10
2018-02-11T22:10:14.471Z,96.40
2018-02-11T22:12:43.260Z,97.30
2018-02-11T22:15:12.011Z,98.10
2018-02-11T22:17:41.541Z,99.90
2018-02-11T22:20:10.292Z,99.90
2018-02-11T22:22:39.052Z,99.90
2018-02-11T22:25:07.828Z,99.90
2018-02-11T22:27:37.531Z,99.90
2018-02-11T22:30:06.301Z,99.90
2018-02-11T22:32:35.315Z,99.90
2018-02-11T22:35:04.118Z,99.90
2018-02-11T22:37:33.801Z,99.90
2018-02-11T22:40:02.563Z,99.90
2018-02-11T22:42:32.096Z,99.90
2018-02-11T22:45:00.833Z,99.90
2018-02-11T22:47:29.566Z,99.90
2018-02-11T22:49:58.336Z,99.90
2018-02-11T22:52:27.842Z,99.90
2018-02-11T22:54:57.357Z,99.90
2018-02-11T22:57:28.209Z,99.90
2018-02-11T22:59:57.700Z,99.90
2018-02-11T23:02:26.451Z,99.90
2018-02-11T23:04:55.279Z,99.90
2018-02-11T23:07:24.034Z,99.90
2018-02-11T23:09:52.760Z,99.90
2018-02-11T23:12:21.505Z,99.90
2018-02-11T23:14:50.249Z,99.90
2018-02-11T23:17:18.986Z,99.90
2018-02-11T23:19:51.946Z,99.90
2018-02-11T23:22:20.707Z,99.90
2018-02-11T23:24:49.456Z,99.90
2018-02-11T23:27:18.194Z,99.90
2018-02-11T23:29:46.939Z,99.90
2018-02-11T23:32:16.125Z,99.90
2018-02-11T23:34:45.744Z,99.90
2018-02-11T23:37:14.496Z,99.90
2018-02-11T23:39:43.235Z,99.90
2018-02-11T23:42:12.655Z,99.90
2018-02-11T23:44:41.417Z,99.90
2018-02-11T23:47:10.916Z,99.90
2018-02-11T23:49:39.659Z,99.90
2018-02-11T23:52:13.362Z,99.90
2018-02-11T23:54:44.143Z,99.90
